Time;durP1;ratioP1;P1;durP2;ratioP2;P2;SDS_P1;SDS_P2;PMS_P1;PMS_P2;Temp;Humidity;BMP_temperature;BMP_pressure;BME280_temperature;BME280_humidity;BME280_pressure;Samples;Min_cycle;Max_cycle;Signal;HPM_P1;HPM_P2
2023/07/04 00:02:16;;;;;;;9.30;3.60;;;;;;;17.02;62.29;100153.53;107082;1256;61261;-69
2023/07/04 00:04:43;;;;;;;12.00;3.70;;;;;;;17.06;62.03;100151.20;106368;1256;74712;-69
2023/07/04 00:07:10;;;;;;;8.60;3.80;;;;;;;17.08;62.19;100153.98;106265;1256;61699;-69
2023/07/04 00:09:36;;;;;;;10.20;3.90;;;;;;;17.09;62.25;100154.54;106045;1259;71787;-69
2023/07/04 00:12:03;;;;;;;9.80;4.20;;;;;;;17.09;62.32;100152.26;106945;1257;62044;-69
2023/07/04 00:14:30;;;;;;;9.30;4.10;;;;;;;17.07;62.56;100155.89;106127;1259;61273;-70
2023/07/04 00:16:57;;;;;;;10.80;4.40;;;;;;;17.05;62.57;100155.89;106061;1259;74626;-69
2023/07/04 00:19:23;;;;;;;10.30;3.50;;;;;;;17.02;62.27;100167.92;106675;1259;69919;-68
2023/07/04 00:21:50;;;;;;;12.90;3.50;;;;;;;17.02;61.93;100158.83;106134;1259;61276;-69
2023/07/04 00:24:17;;;;;;;8.20;3.30;;;;;;;17.02;61.30;100161.98;106143;1259;62130;-70
2023/07/04 00:26:43;;;;;;;9.50;3.10;;;;;;;17.05;60.81;100163.56;106376;1259;61343;-68
2023/07/04 00:29:10;;;;;;;8.50;3.20;;;;;;;17.09;60.43;100170.24;106149;1256;61379;-68
2023/07/04 00:31:36;;;;;;;6.80;3.00;;;;;;;17.14;60.27;100168.98;106846;1257;69966;-70
2023/07/04 00:34:05;;;;;;;10.30;3.10;;;;;;;17.18;59.98;100180.16;106058;1258;62130;-68
2023/07/04 00:36:34;;;;;;;6.10;2.60;;;;;;;17.21;59.58;100172.04;106868;1256;61125;-69
2023/07/04 00:39:02;;;;;;;7.40;3.00;;;;;;;17.24;59.52;100170.23;106059;1256;61206;-69
2023/07/04 00:41:29;;;;;;;7.90;2.50;;;;;;;17.26;59.13;100170.73;106017;1259;350447;-69
2023/07/04 00:44:19;;;;;;;7.70;2.90;;;;;;;17.28;59.01;100173.23;106587;1261;69843;-66
2023/07/04 00:47:10;;;;;;;6.60;2.50;;;;;;;17.30;58.92;100177.74;106768;1256;73098;-69
2023/07/04 00:49:43;;;;;;;9.10;2.50;;;;;;;17.32;58.60;100181.64;107495;1256;62070;-71
2023/07/04 00:52:26;;;;;;;6.30;2.50;;;;;;;17.33;58.67;100189.90;107240;1255;61321;-69
2023/07/04 00:54:57;;;;;;;7.30;2.50;;;;;;;17.33;59.25;100195.71;107415;1257;73815;-69
2023/07/04 00:57:37;;;;;;;7.80;2.40;;;;;;;17.32;60.31;100207.85;107037;1257;72158;-70
2023/07/04 01:00:28;;;;;;;9.20;2.80;;;;;;;17.21;62.83;100213.48;106378;1255;72734;-72
2023/07/04 01:03:03;;;;;;;8.00;2.70;;;;;;;17.09;63.91;100228.05;107029;1256;61187;-70
2023/07/04 01:05:40;;;;;;;7.80;2.40;;;;;;;16.98;65.37;100237.49;106917;1256;61170;-67
2023/07/04 01:08:22;;;;;;;9.70;2.60;;;;;;;16.80;67.42;100242.80;107670;1257;73525;-69
2023/07/04 01:10:51;;;;;;;8.40;2.40;;;;;;;16.65;68.60;100250.73;107045;1256;70765;-71
2023/07/04 01:13:35;;;;;;;7.40;2.10;;;;;;;16.47;69.92;100247.36;107154;1256;70966;-70
2023/07/04 01:16:10;;;;;;;5.80;2.20;;;;;;;16.35;70.78;100248.46;107587;1256;62956;-70
2023/07/04 01:18:39;;;;;;;7.20;2.30;;;;;;;16.24;71.62;100249.16;108635;1259;60861;-71
2023/07/04 01:21:08;;;;;;;6.00;1.80;;;;;;;16.16;72.17;100248.72;108044;1257;74336;-69
2023/07/04 01:23:59;;;;;;;4.30;1.70;;;;;;;16.05;72.15;100251.17;107030;1256;70385;-69
2023/07/04 01:26:41;;;;;;;6.60;2.00;;;;;;;15.97;72.28;100248.78;108039;1257;73014;-70
2023/07/04 01:29:14;;;;;;;4.10;1.50;;;;;;;15.90;72.26;100251.93;107003;1257;61359;-69
2023/07/04 01:31:43;;;;;;;4.30;1.70;;;;;;;15.84;72.07;100249.04;107556;1256;61371;-68
2023/07/04 01:34:12;;;;;;;4.00;1.50;;;;;;;15.78;72.06;100260.56;106812;1256;73784;-70
2023/07/04 01:36:44;;;;;;;3.90;1.30;;;;;;;15.70;71.84;100261.31;107434;1257;70511;-66
2023/07/04 01:39:14;;;;;;;4.00;1.30;;;;;;;15.66;72.00;100271.70;107055;1259;71373;-67
2023/07/04 01:41:46;;;;;;;3.10;1.20;;;;;;;15.61;72.18;100271.96;106930;1262;60759;-70
2023/07/04 01:44:15;;;;;;;3.40;1.20;;;;;;;15.54;72.70;100267.37;107564;1257;60727;-68
2023/07/04 01:46:43;;;;;;;3.40;1.40;;;;;;;15.49;72.90;100288.91;106774;1256;73331;-69
2023/07/04 01:49:09;;;;;;;2.90;0.90;;;;;;;15.38;72.50;100282.83;107154;1257;71780;-68
2023/07/04 01:51:41;;;;;;;2.80;1.00;;;;;;;15.27;72.76;100289.94;107251;1257;73886;-70
2023/07/04 01:54:10;;;;;;;3.10;0.90;;;;;;;15.15;73.36;100286.92;107006;1256;61926;-69
2023/07/04 01:56:38;;;;;;;4.50;0.90;;;;;;;15.05;74.23;100288.88;106645;1262;61289;-70
2023/07/04 01:59:07;;;;;;;3.00;0.90;;;;;;;14.93;74.73;100308.49;107025;1259;74487;-68
2023/07/04 02:01:34;;;;;;;1.90;0.70;;;;;;;14.79;76.74;100322.40;107399;1257;71135;-68
2023/07/04 02:04:01;;;;;;;3.30;0.70;;;;;;;14.54;80.89;100324.54;107081;1258;72423;-69
2023/07/04 02:06:29;;;;;;;2.20;0.70;;;;;;;14.18;83.50;100327.31;106859;1256;62309;-68
2023/07/04 02:08:55;;;;;;;1.90;0.80;;;;;;;13.87;85.84;100316.34;107092;1260;61123;-68
2023/07/04 02:11:22;;;;;;;3.90;0.90;;;;;;;13.60;87.55;100308.58;107312;1262;73592;-69
2023/07/04 02:13:49;;;;;;;1.80;0.70;;;;;;;13.41;89.30;100302.30;106925;1262;71227;-68
2023/07/04 02:16:16;;;;;;;3.50;1.10;;;;;;;13.27;90.99;100294.23;106909;1259;71617;-69
2023/07/04 02:18:42;;;;;;;3.60;1.00;;;;;;;13.17;91.40;100273.95;107081;1257;62165;-69
2023/07/04 02:21:09;;;;;;;1.60;0.70;;;;;;;13.09;92.55;100271.44;107397;1257;61858;-68
2023/07/04 02:23:36;;;;;;;4.10;1.00;;;;;;;13.01;92.83;100265.60;106871;1256;73754;-68
2023/07/04 02:26:02;;;;;;;2.60;1.10;;;;;;;12.96;93.31;100262.60;106666;1260;61637;-68
2023/07/04 02:28:29;;;;;;;3.10;1.00;;;;;;;12.92;93.94;100268.86;106981;1257;72778;-67
2023/07/04 02:30:58;;;;;;;2.50;1.00;;;;;;;12.88;94.33;100265.48;107232;1256;60975;-68
2023/07/04 02:33:25;;;;;;;3.00;1.00;;;;;;;12.85;94.81;100263.02;106953;1261;61242;-67
2023/07/04 02:35:52;;;;;;;3.40;1.10;;;;;;;12.83;94.72;100268.38;106874;1257;73158;-67
2023/07/04 02:38:20;;;;;;;2.90;0.90;;;;;;;12.82;95.01;100268.30;107091;1257;71167;-69
2023/07/04 02:40:49;;;;;;;4.10;1.10;;;;;;;12.82;95.14;100265.47;107048;1261;71523;-69
2023/07/04 02:43:16;;;;;;;3.00;1.20;;;;;;;12.83;95.29;100259.49;107087;1260;61257;-69
2023/07/04 02:45:43;;;;;;;4.00;1.10;;;;;;;12.84;95.53;100258.39;107094;1257;59840;-69
2023/07/04 02:48:10;;;;;;;3.60;1.10;;;;;;;12.85;95.57;100262.27;107187;1260;73952;-69
2023/07/04 02:50:37;;;;;;;2.80;1.00;;;;;;;12.85;96.08;100260.98;107423;1256;69830;-70
2023/07/04 02:53:04;;;;;;;3.70;1.10;;;;;;;12.87;96.21;100259.91;107035;1257;71724;-69
2023/07/04 02:55:31;;;;;;;3.80;1.20;;;;;;;12.88;96.41;100260.27;107526;1257;59847;-70
2023/07/04 02:57:58;;;;;;;2.80;1.10;;;;;;;12.91;96.51;100261.19;106967;1258;61208;-70
2023/07/04 03:00:24;;;;;;;3.10;1.00;;;;;;;12.93;96.50;100267.27;106865;1257;73453;-69
2023/07/04 03:02:51;;;;;;;2.50;0.90;;;;;;;12.95;96.07;100268.59;106699;1257;61235;-69
2023/07/04 03:05:18;;;;;;;1.90;0.90;;;;;;;12.97;96.61;100269.70;107000;1260;72422;-70
2023/07/04 03:07:45;;;;;;;3.50;1.00;;;;;;;13.00;96.24;100272.92;107041;1260;61672;-69
2023/07/04 03:10:12;;;;;;;3.70;1.00;;;;;;;13.02;96.10;100268.55;107544;1257;61254;-69
2023/07/04 03:12:39;;;;;;;2.10;0.90;;;;;;;13.05;95.85;100270.79;107263;1259;73538;-69
2023/07/04 03:15:08;;;;;;;2.80;1.00;;;;;;;13.10;95.71;100277.21;107689;1258;72652;-69
2023/07/04 03:17:35;;;;;;;3.10;1.00;;;;;;;13.12;95.32;100283.62;106841;1260;72613;-71
2023/07/04 03:20:08;;;;;;;4.50;1.00;;;;;;;13.16;94.89;100289.69;106967;1257;62316;-69
2023/07/04 03:22:35;;;;;;;2.70;0.90;;;;;;;13.20;94.65;100297.23;106693;1256;61292;-69
2023/07/04 03:25:02;;;;;;;2.70;0.90;;;;;;;13.24;94.35;100294.50;107265;1260;74784;-70
2023/07/04 03:27:29;;;;;;;1.80;0.80;;;;;;;13.26;93.83;100294.13;106894;1257;71078;-69
2023/07/04 03:29:56;;;;;;;2.60;1.00;;;;;;;13.31;93.27;100298.75;106799;1260;73936;-69
2023/07/04 03:32:22;;;;;;;2.90;1.00;;;;;;;13.34;92.58;100299.22;107100;1256;60368;-69
2023/07/04 03:34:49;;;;;;;4.50;1.00;;;;;;;13.39;92.42;100307.27;107290;1258;61279;-68
2023/07/04 03:37:16;;;;;;;3.30;1.00;;;;;;;13.43;92.44;100310.20;107031;1255;74802;-70
2023/07/04 03:39:43;;;;;;;3.50;0.70;;;;;;;13.44;92.90;100309.23;106939;1256;71247;-69
2023/07/04 03:42:10;;;;;;;3.90;1.10;;;;;;;13.41;93.42;100309.06;107390;1257;70560;-69
2023/07/04 03:44:36;;;;;;;4.90;1.00;;;;;;;13.38;93.52;100314.31;106900;1256;62069;-70
2023/07/04 03:47:03;;;;;;;3.40;1.00;;;;;;;13.33;94.24;100308.40;106714;1258;60320;-69
2023/07/04 03:49:30;;;;;;;4.50;1.40;;;;;;;13.28;95.01;100304.98;107446;1257;73778;-70
2023/07/04 03:51:57;;;;;;;4.30;1.20;;;;;;;13.23;95.68;100299.86;107430;1256;71236;-69
2023/07/04 03:54:24;;;;;;;4.60;1.40;;;;;;;13.20;96.22;100298.17;106830;1263;60782;-69
2023/07/04 03:56:50;;;;;;;3.20;1.10;;;;;;;13.16;96.58;100292.30;106995;1257;62105;-69
2023/07/04 03:59:17;;;;;;;3.60;1.20;;;;;;;13.15;96.30;100288.62;107689;1256;59083;-69
2023/07/04 04:01:45;;;;;;;4.60;1.10;;;;;;;13.15;96.77;100298.83;107585;1257;73606;-70
2023/07/04 04:04:12;;;;;;;3.40;1.30;;;;;;;13.14;97.33;100306.08;106815;1261;71158;-72
2023/07/04 04:06:40;;;;;;;5.30;1.20;;;;;;;13.14;97.59;100308.45;107163;1257;70247;-73
2023/07/04 04:09:06;;;;;;;6.30;1.30;;;;;;;13.13;97.70;100308.23;106980;1256;61984;-73
2023/07/04 04:11:33;;;;;;;4.10;1.30;;;;;;;13.12;97.48;100308.48;106977;1260;61746;-73
2023/07/04 04:14:00;;;;;;;6.60;1.30;;;;;;;13.12;97.48;100312.90;106768;1257;74980;-73
2023/07/04 04:16:27;;;;;;;3.80;1.10;;;;;;;13.12;97.16;100316.84;107074;1263;69934;-74
2023/07/04 04:18:53;;;;;;;6.00;1.30;;;;;;;13.14;96.90;100316.77;108064;1258;72713;-71
2023/07/04 04:21:26;;;;;;;4.50;1.20;;;;;;;13.15;96.76;100314.47;107477;1256;61165;-71
2023/07/04 04:23:58;;;;;;;5.20;1.50;;;;;;;13.17;96.74;100315.78;106981;1256;61212;-72
2023/07/04 04:26:25;;;;;;;3.20;1.10;;;;;;;13.19;96.51;100321.90;107235;1257;74277;-71
2023/07/04 04:28:53;;;;;;;3.30;1.30;;;;;;;13.24;96.18;100324.30;107103;1257;72416;-72
2023/07/04 04:31:19;;;;;;;4.90;1.60;;;;;;;13.29;95.75;100321.36;107133;1256;72758;-72
2023/07/04 04:33:47;;;;;;;3.50;1.20;;;;;;;13.33;95.86;100315.85;107784;1257;60721;-69
2023/07/04 04:36:17;;;;;;;5.70;1.30;;;;;;;13.37;95.33;100314.48;107068;1259;61363;-71
2023/07/04 04:38:44;;;;;;;4.90;1.50;;;;;;;13.43;94.93;100316.97;107110;1257;72417;-71
2023/07/04 04:41:12;;;;;;;4.90;1.30;;;;;;;13.48;94.07;100316.85;107290;1255;69620;-72
2023/07/04 04:43:39;;;;;;;3.40;1.20;;;;;;;13.55;93.76;100323.60;107078;1260;71445;-70
2023/07/04 04:46:06;;;;;;;4.00;1.30;;;;;;;13.62;93.21;100327.20;107294;1257;62072;-70
2023/07/04 04:48:35;;;;;;;3.70;1.20;;;;;;;13.68;92.95;100333.16;107054;1258;60429;-71
2023/07/04 04:51:12;;;;;;;3.30;1.10;;;;;;;13.72;91.27;100332.41;107554;1256;74457;-70
2023/07/04 04:53:41;;;;;;;2.90;1.00;;;;;;;13.78;90.94;100335.13;108706;1258;69043;-71
2023/07/04 04:56:08;;;;;;;4.30;1.20;;;;;;;13.85;90.60;100336.11;106604;1260;71620;-70
2023/07/04 04:58:36;;;;;;;3.40;0.90;;;;;;;13.93;90.37;100332.62;106386;1257;63223;-70
2023/07/04 05:01:08;;;;;;;5.10;1.20;;;;;;;14.01;89.86;100342.06;107122;1258;60354;-72
2023/07/04 05:03:35;;;;;;;4.00;1.30;;;;;;;14.11;89.57;100346.45;106506;1258;73644;-71
2023/07/04 05:06:03;;;;;;;4.80;1.00;;;;;;;14.19;89.03;100347.83;106399;1257;70192;-70
2023/07/04 05:08:30;;;;;;;4.60;1.10;;;;;;;14.27;87.70;100350.44;106452;1257;73221;-71
2023/07/04 05:11:07;;;;;;;3.60;1.00;;;;;;;14.35;85.88;100355.33;106416;1257;61991;-71
2023/07/04 05:13:36;;;;;;;4.70;1.00;;;;;;;14.42;84.66;100355.94;106869;1257;61299;-71
2023/07/04 05:16:06;;;;;;;3.20;0.90;;;;;;;14.52;84.67;100351.64;106430;1257;73479;-70
2023/07/04 05:18:35;;;;;;;3.40;1.10;;;;;;;14.62;83.47;100355.24;107267;1258;70001;-70
2023/07/04 05:21:08;;;;;;;2.50;1.10;;;;;;;14.76;83.26;100362.80;106632;1261;72044;-70
2023/07/04 05:23:37;;;;;;;3.60;1.00;;;;;;;14.92;82.02;100360.89;106653;1255;61285;-71
2023/07/04 05:26:08;;;;;;;2.20;0.90;;;;;;;15.04;80.84;100356.90;106351;1257;61183;-72
2023/07/04 05:28:35;;;;;;;2.90;0.90;;;;;;;15.15;79.87;100355.63;106265;1258;73458;-72
2023/07/04 05:31:07;;;;;;;3.30;0.90;;;;;;;15.22;79.16;100359.52;106886;1257;70067;-71
2023/07/04 05:33:35;;;;;;;3.00;1.00;;;;;;;15.26;78.58;100360.04;108495;1256;72706;-70
2023/07/04 05:36:09;;;;;;;4.60;1.10;;;;;;;15.33;78.84;100363.29;106851;1258;61196;-69
2023/07/04 05:38:37;;;;;;;2.90;0.80;;;;;;;15.42;78.90;100364.39;107771;1256;60430;-69
2023/07/04 05:41:13;;;;;;;3.00;1.00;;;;;;;15.48;78.85;100368.88;106933;1257;73517;-67
2023/07/04 05:43:41;;;;;;;2.90;0.90;;;;;;;15.50;78.48;100377.12;106809;1258;70528;-71
2023/07/04 05:46:10;;;;;;;3.40;1.00;;;;;;;15.53;78.36;100373.21;106785;1261;72079;-70
2023/07/04 05:48:38;;;;;;;3.90;1.00;;;;;;;15.56;78.39;100373.80;107463;1257;61306;-68
2023/07/04 05:51:07;;;;;;;5.50;1.30;;;;;;;15.61;78.40;100375.09;107745;1257;59714;-69
2023/07/04 05:53:35;;;;;;;3.60;0.90;;;;;;;15.65;78.51;100382.50;107546;1257;73465;-69
2023/07/04 05:56:12;;;;;;;4.60;1.30;;;;;;;15.68;78.14;100381.08;107833;1257;71258;-68
2023/07/04 05:58:41;;;;;;;3.40;1.10;;;;;;;15.73;78.10;100372.98;106360;1260;72776;-71
2023/07/04 06:01:14;;;;;;;5.30;1.60;;;;;;;15.78;78.19;100377.97;106411;1257;62092;-69
2023/07/04 06:03:41;;;;;;;3.60;1.50;;;;;;;15.86;77.76;100383.88;106520;1257;61542;-71
2023/07/04 06:06:18;;;;;;;6.60;1.50;;;;;;;15.88;77.32;100380.73;107064;1257;73216;-71
2023/07/04 06:08:45;;;;;;;5.20;1.40;;;;;;;15.92;77.39;100383.98;106451;1257;71214;-70
2023/07/04 06:11:12;;;;;;;4.00;1.00;;;;;;;15.93;77.31;100386.41;106347;1255;71514;-70
2023/07/04 06:13:39;;;;;;;5.20;1.20;;;;;;;15.91;77.01;100392.83;106381;1260;61342;-68
2023/07/04 06:16:06;;;;;;;3.60;1.40;;;;;;;15.94;77.42;100394.42;107223;1257;61726;-70
2023/07/04 06:18:33;;;;;;;3.60;1.20;;;;;;;16.03;77.28;100390.39;106345;1256;73481;-69
2023/07/04 06:21:08;;;;;;;2.90;1.10;;;;;;;16.14;77.25;100381.70;106443;1257;70584;-69
2023/07/04 06:23:35;;;;;;;4.20;1.40;;;;;;;16.24;76.67;100391.16;106785;1256;72427;-68
2023/07/04 06:26:02;;;;;;;6.30;1.50;;;;;;;16.25;76.36;100387.56;106508;1256;61384;-69
2023/07/04 06:28:28;;;;;;;4.60;1.30;;;;;;;16.32;76.92;100396.01;106477;1257;61246;-69
2023/07/04 06:30:55;;;;;;;5.50;1.50;;;;;;;16.41;76.59;100398.98;106381;1257;73462;-69
2023/07/04 06:33:22;;;;;;;3.90;1.30;;;;;;;16.47;77.03;100405.86;106953;1257;71445;-70
2023/07/04 06:35:49;;;;;;;6.00;1.40;;;;;;;16.52;76.51;100400.59;106462;1256;73340;-70
2023/07/04 06:38:16;;;;;;;4.50;1.30;;;;;;;16.52;75.88;100403.39;106529;1257;62634;-69
2023/07/04 06:40:42;;;;;;;4.00;1.40;;;;;;;16.53;76.06;100407.41;106937;1257;61158;-70
2023/07/04 06:43:09;;;;;;;5.30;1.50;;;;;;;16.56;76.87;100408.41;106305;1255;73520;-68
2023/07/04 06:45:36;;;;;;;5.60;1.40;;;;;;;16.55;76.75;100407.69;106254;1256;69714;-69
2023/07/04 06:48:02;;;;;;;4.90;2.10;;;;;;;16.49;76.22;100412.48;106632;1259;72758;-70
2023/07/04 06:50:29;;;;;;;3.70;1.50;;;;;;;16.44;76.08;100416.77;106507;1256;62048;-70
2023/07/04 06:52:56;;;;;;;3.90;1.50;;;;;;;16.38;75.98;100416.37;106992;1257;59782;-70
2023/07/04 06:55:23;;;;;;;5.70;1.30;;;;;;;16.37;75.47;100425.45;106335;1256;74751;-69
2023/07/04 06:57:50;;;;;;;6.30;1.60;;;;;;;16.36;74.12;100418.12;106416;1256;70336;-69
2023/07/04 07:00:17;;;;;;;3.60;1.30;;;;;;;16.41;74.93;100424.73;106922;1257;72650;-69
2023/07/04 07:02:48;;;;;;;5.40;1.50;;;;;;;16.47;74.69;100429.52;106414;1256;61609;-69
2023/07/04 07:05:14;;;;;;;5.20;1.70;;;;;;;16.48;74.05;100434.04;106109;1257;61699;-69
2023/07/04 07:07:41;;;;;;;3.70;1.40;;;;;;;16.43;73.27;100430.22;106272;1257;73725;-69
2023/07/04 07:10:09;;;;;;;4.90;1.50;;;;;;;16.37;73.41;100432.29;106541;1257;71238;-69
2023/07/04 07:12:35;;;;;;;6.80;3.10;;;;;;;16.33;73.74;100437.21;106942;1256;72036;-69
2023/07/04 07:15:02;;;;;;;4.50;1.50;;;;;;;16.32;73.88;100438.05;106318;1257;62033;-68
2023/07/04 07:17:29;;;;;;;4.50;1.40;;;;;;;16.33;73.53;100433.35;106347;1256;60794;-68
2023/07/04 07:19:55;;;;;;;5.50;2.10;;;;;;;16.35;73.84;100433.70;106795;1256;74724;-70
2023/07/04 07:22:23;;;;;;;6.10;1.60;;;;;;;16.45;74.06;100435.84;106465;1256;71352;-68
2023/07/04 07:24:50;;;;;;;6.20;2.10;;;;;;;16.56;74.44;100433.96;106550;1256;72691;-68
2023/07/04 07:27:16;;;;;;;5.10;2.00;;;;;;;16.62;73.79;100443.69;106259;1256;61355;-69
2023/07/04 07:29:47;;;;;;;7.00;2.70;;;;;;;16.73;73.49;100443.77;106330;1256;61283;-70
2023/07/04 07:32:14;;;;;;;6.70;2.10;;;;;;;16.78;72.76;100446.19;107115;1256;74656;-70
2023/07/04 07:34:41;;;;;;;4.50;2.20;;;;;;;16.82;72.66;100448.48;106483;1256;69658;-68
2023/07/04 07:37:08;;;;;;;5.30;2.40;;;;;;;16.93;72.12;100450.34;106451;1256;71597;-69
2023/07/04 07:39:35;;;;;;;5.70;2.10;;;;;;;17.12;71.54;100450.02;106966;1256;62823;-69
2023/07/04 07:42:02;;;;;;;5.70;2.10;;;;;;;17.26;70.24;100452.23;106709;1256;61115;-69
2023/07/04 07:44:29;;;;;;;7.00;2.50;;;;;;;17.43;70.37;100447.68;106477;1256;73531;-71
2023/07/04 07:46:55;;;;;;;6.40;2.40;;;;;;;17.65;69.94;100452.76;106520;1256;71214;-70
2023/07/04 07:49:22;;;;;;;5.60;2.20;;;;;;;17.76;67.98;100457.14;106388;1256;72673;-70
2023/07/04 07:51:49;;;;;;;7.20;2.30;;;;;;;17.76;67.94;100466.36;106889;1260;61914;-69
2023/07/04 07:54:15;;;;;;;6.80;2.60;;;;;;;17.80;68.39;100455.94;106638;1257;61633;-69
2023/07/04 07:56:45;;;;;;;7.80;2.10;;;;;;;17.66;67.24;100464.80;106284;1256;73526;-69
2023/07/04 07:59:12;;;;;;;5.00;2.10;;;;;;;17.55;67.81;100469.56;106695;1257;71199;-68
2023/07/04 08:01:40;;;;;;;5.30;2.10;;;;;;;17.49;68.01;100471.91;106483;1257;72739;-69
2023/07/04 08:04:07;;;;;;;6.00;2.20;;;;;;;17.47;68.29;100466.86;106553;1257;62021;-70
2023/07/04 08:06:40;;;;;;;7.60;2.80;;;;;;;17.49;68.81;100474.50;106922;1256;61352;-69
2023/07/04 08:09:10;;;;;;;5.60;2.20;;;;;;;17.59;68.27;100473.64;107157;1256;73791;-68
2023/07/04 08:11:39;;;;;;;5.80;2.00;;;;;;;17.63;67.88;100468.05;106960;1256;69681;-69
2023/07/04 08:14:06;;;;;;;6.80;2.80;;;;;;;17.72;67.53;100471.86;107001;1257;71551;-69
2023/07/04 08:16:59;;;;;;;6.50;1.90;;;;;;;17.75;66.80;100475.40;106500;1256;61250;-69
2023/07/04 08:19:26;;;;;;;6.00;2.00;;;;;;;17.77;66.75;100466.34;106191;1259;61288;-70
2023/07/04 08:21:54;;;;;;;5.70;1.90;;;;;;;17.88;66.27;100468.44;106161;1262;75472;-69
2023/07/04 08:24:22;;;;;;;6.10;1.70;;;;;;;17.90;65.30;100470.10;105916;1262;69808;-69
2023/07/04 08:26:52;;;;;;;7.40;2.00;;;;;;;17.97;65.55;100469.95;106187;1256;72748;-68
2023/07/04 08:29:19;;;;;;;5.60;1.60;;;;;;;18.09;65.67;100476.76;106214;1256;62097;-70
2023/07/04 08:31:46;;;;;;;5.40;1.60;;;;;;;18.12;64.63;100474.14;106930;1260;61372;-70
2023/07/04 08:34:13;;;;;;;5.30;1.70;;;;;;;18.11;64.62;100486.14;106894;1256;74020;-69
2023/07/04 08:36:41;;;;;;;5.90;1.70;;;;;;;18.09;64.53;100470.94;106498;1256;71197;-71
2023/07/04 08:39:09;;;;;;;5.00;1.90;;;;;;;18.13;64.85;100466.15;106602;1256;74195;-71
2023/07/04 08:41:41;;;;;;;6.50;2.10;;;;;;;18.28;64.75;100465.67;107762;1256;61223;-71
2023/07/04 08:44:18;;;;;;;7.10;1.70;;;;;;;18.39;64.36;100468.23;105937;1257;61257;-70
2023/07/04 08:46:48;;;;;;;5.00;1.60;;;;;;;18.56;64.03;100475.84;106655;1262;73337;-70
2023/07/04 08:49:41;;;;;;;6.50;1.70;;;;;;;18.60;62.42;100475.83;107124;1256;69922;-71
2023/07/04 08:52:24;;;;;;;4.90;1.40;;;;;;;18.72;62.88;100478.80;106861;1258;73270;-70
2023/07/04 08:54:53;;;;;;;5.60;1.50;;;;;;;18.91;62.30;100480.20;106185;1257;62796;-71
2023/07/04 08:57:35;;;;;;;3.50;1.30;;;;;;;19.04;60.92;100486.34;105965;1257;61237;-68
2023/07/04 09:00:12;;;;;;;4.30;1.40;;;;;;;19.06;60.42;100491.99;106205;1257;75023;-69
2023/07/04 09:02:44;;;;;;;4.40;1.20;;;;;;;19.15;59.98;100488.68;106449;1257;70429;-69
2023/07/04 09:05:16;;;;;;;5.00;1.60;;;;;;;19.22;59.18;100490.44;106738;1256;70898;-70
2023/07/04 09:08:14;;;;;;;3.70;1.50;;;;;;;19.28;58.61;100487.88;106858;1256;59423;-71
2023/07/04 09:10:46;;;;;;;4.70;1.50;;;;;;;19.47;58.46;100490.60;106979;1259;61173;-69
2023/07/04 09:13:23;;;;;;;5.20;1.40;;;;;;;19.50;57.44;100502.50;106576;1256;73371;-70
2023/07/04 09:15:51;;;;;;;2.70;1.20;;;;;;;19.48;58.10;100492.73;106604;1255;71266;-69
2023/07/04 09:18:18;;;;;;;3.80;1.40;;;;;;;19.53;59.21;100495.90;106421;1256;70846;-70
2023/07/04 09:21:14;;;;;;;4.30;1.30;;;;;;;19.58;57.85;100511.00;106076;1256;61346;-69
2023/07/04 09:23:42;;;;;;;4.00;1.30;;;;;;;19.62;53.31;100506.58;106134;1256;61282;-70
2023/07/04 09:26:12;;;;;;;3.80;1.20;;;;;;;19.73;52.86;100509.78;106576;1256;73628;-67
2023/07/04 09:28:43;;;;;;;4.60;1.30;;;;;;;19.79;52.79;100510.20;106730;1262;69154;-69
2023/07/04 09:31:23;;;;;;;4.80;1.30;;;;;;;19.83;52.54;100518.73;106404;1257;72817;-69
2023/07/04 09:33:52;;;;;;;3.80;1.20;;;;;;;19.85;52.02;100509.83;106442;1257;61294;-68
2023/07/04 09:36:25;;;;;;;3.50;1.00;;;;;;;19.88;52.01;100515.17;106166;1262;61781;-70
2023/07/04 09:38:56;;;;;;;3.10;1.00;;;;;;;19.93;52.01;100516.77;106607;1256;72277;-72
2023/07/04 09:41:29;;;;;;;2.70;1.10;;;;;;;20.03;52.02;100516.63;106403;1256;71216;-69
2023/07/04 09:44:20;;;;;;;6.30;1.30;;;;;;;20.06;51.39;100519.48;106524;1256;71477;-69
2023/07/04 09:46:51;;;;;;;4.10;1.20;;;;;;;20.08;51.11;100509.11;106326;1256;61374;-70
2023/07/04 09:49:35;;;;;;;4.90;1.30;;;;;;;20.11;50.91;100511.27;106980;1257;61273;-68
2023/07/04 09:52:21;;;;;;;4.00;1.20;;;;;;;20.18;49.75;100508.52;108331;1256;75947;-71
2023/07/04 09:55:07;;;;;;;3.90;1.10;;;;;;;20.30;48.12;100503.67;107291;1257;71467;-70
2023/07/04 09:57:34;;;;;;;3.60;1.40;;;;;;;20.38;48.55;100493.35;107148;1256;71446;-69
2023/07/04 10:00:22;;;;;;;5.20;1.30;;;;;;;20.42;48.98;100495.66;106752;1255;61267;-69
2023/07/04 10:02:52;;;;;;;4.80;1.40;;;;;;;20.47;48.48;100496.56;106677;1256;60629;-68
2023/07/04 10:05:26;;;;;;;5.30;1.40;;;;;;;20.58;48.65;100493.02;106247;1256;74710;-70
2023/07/04 10:08:09;;;;;;;4.20;1.50;;;;;;;20.72;48.62;100500.53;106517;1257;71244;-68
2023/07/04 10:11:01;;;;;;;4.40;1.30;;;;;;;20.85;48.41;100517.70;106326;1256;71462;-70
2023/07/04 10:13:38;;;;;;;4.40;1.30;;;;;;;20.86;47.38;100499.75;106295;1256;61193;-68
2023/07/04 10:16:25;;;;;;;5.10;1.40;;;;;;;20.83;48.56;100504.35;106069;1259;61280;-68
2023/07/04 10:19:02;;;;;;;5.10;1.10;;;;;;;20.82;47.10;100514.05;106444;1256;73478;-68
2023/07/04 10:21:29;;;;;;;4.30;1.40;;;;;;;20.79;47.81;100499.92;106635;1256;72084;-69
2023/07/04 10:23:56;;;;;;;5.40;1.50;;;;;;;20.82;48.60;100513.35;106749;1256;71542;-69
2023/07/04 10:26:23;;;;;;;4.20;1.50;;;;;;;20.86;48.23;100508.22;106577;1255;61372;-69
2023/07/04 10:28:52;;;;;;;6.40;1.80;;;;;;;20.87;47.74;100502.84;106246;1256;61653;-68
2023/07/04 10:31:21;;;;;;;5.00;1.30;;;;;;;20.88;47.97;100518.33;106184;1257;73980;-67
2023/07/04 10:33:51;;;;;;;4.80;1.80;;;;;;;20.98;46.47;100498.31;106121;1257;71794;-68
2023/07/04 10:36:26;;;;;;;5.70;1.30;;;;;;;21.14;46.77;100496.14;106463;1260;72540;-69
2023/07/04 10:38:59;;;;;;;5.10;1.70;;;;;;;21.38;46.78;100494.56;106647;1256;61653;-69
2023/07/04 10:41:25;;;;;;;5.00;1.50;;;;;;;21.44;46.94;100490.65;106469;1256;61343;-68
2023/07/04 10:43:58;;;;;;;6.40;1.50;;;;;;;21.33;46.94;100478.54;106287;1256;73560;-69
2023/07/04 10:46:28;;;;;;;5.40;1.80;;;;;;;21.12;47.47;100490.03;106331;1257;70202;-68
2023/07/04 10:49:01;;;;;;;5.80;1.80;;;;;;;20.85;47.93;100488.95;106208;1256;72309;-69
2023/07/04 10:51:36;;;;;;;5.10;1.70;;;;;;;20.65;49.04;100492.45;106122;1257;61324;-67
2023/07/04 10:54:07;;;;;;;6.70;1.80;;;;;;;20.46;49.70;100488.79;106245;1256;61160;-69
2023/07/04 10:56:36;;;;;;;6.80;1.40;;;;;;;20.35;50.52;100492.39;106744;1257;75917;-68
2023/07/04 10:59:26;;;;;;;5.50;1.70;;;;;;;20.29;50.79;100494.11;106812;1256;70006;-69
2023/07/04 11:01:59;;;;;;;5.40;1.70;;;;;;;20.38;51.24;100489.36;106275;1259;72812;-69
2023/07/04 11:04:32;;;;;;;4.30;1.50;;;;;;;20.52;51.49;100489.54;106189;1259;61361;-67
2023/07/04 11:07:05;;;;;;;4.70;1.50;;;;;;;20.63;50.73;100490.90;106212;1259;61266;-68
2023/07/04 11:09:38;;;;;;;4.90;1.70;;;;;;;20.78;49.91;100495.52;106381;1256;75060;-70
2023/07/04 11:12:07;;;;;;;4.70;1.40;;;;;;;20.87;48.57;100496.05;106081;1256;70048;-70
2023/07/04 11:14:40;;;;;;;6.20;1.50;;;;;;;20.92;47.83;100491.27;106770;1256;71148;-70
2023/07/04 11:17:11;;;;;;;6.10;1.70;;;;;;;20.98;48.62;100487.91;106870;1256;61243;-67
2023/07/04 11:19:53;;;;;;;5.60;1.60;;;;;;;21.06;49.35;100495.29;106665;1255;61262;-68
2023/07/04 11:22:20;;;;;;;6.40;2.10;;;;;;;20.98;48.34;100495.13;106471;1256;73624;-69
2023/07/04 11:24:54;;;;;;;6.10;1.80;;;;;;;20.79;48.09;100496.98;106474;1256;71124;-71
2023/07/04 11:27:29;;;;;;;4.60;1.60;;;;;;;20.63;48.55;100499.05;106085;1256;71588;-68
2023/07/04 11:29:58;;;;;;;9.00;2.00;;;;;;;20.56;49.14;100499.24;106402;1257;61305;-68
2023/07/04 11:32:37;;;;;;;6.70;2.00;;;;;;;20.67;49.33;100505.14;107294;1256;61257;-69